sensor_id;sensor_type;location;lat;lon;timestamp;temperature;humidity
10905;DHT22;5505;51.450;9.254;2022-08-19T00:02:37;19.70;99.90
10905;DHT22;5505;51.450;9.254;2022-08-19T00:05:24;19.80;99.90
10905;DHT22;5505;51.450;9.254;2022-08-19T00:08:11;19.80;99.90
10905;DHT22;5505;51.450;9.254;2022-08-19T00:10:58;19.90;99.90
10905;DHT22;5505;51.450;9.254;2022-08-19T00:13:45;19.90;99.90
10905;DHT22;5505;51.450;9.254;2022-08-19T00:16:37;19.90;99.90
10905;DHT22;5505;51.450;9.254;2022-08-19T00:19:25;19.90;99.90
10905;DHT22;5505;51.450;9.254;2022-08-19T00:22:12;19.90;99.90
10905;DHT22;5505;51.450;9.254;2022-08-19T00:24:59;19.90;99.90
10905;DHT22;5505;51.450;9.254;2022-08-19T00:27:46;19.90;99.90
10905;DHT22;5505;51.450;9.254;2022-08-19T00:30:32;19.90;99.90
10905;DHT22;5505;51.450;9.254;2022-08-19T00:33:21;19.90;99.90
10905;DHT22;5505;51.450;9.254;2022-08-19T00:36:08;19.90;99.90
10905;DHT22;5505;51.450;9.254;2022-08-19T00:38:56;19.90;99.90
10905;DHT22;5505;51.450;9.254;2022-08-19T00:41:44;19.90;99.90
10905;DHT22;5505;51.450;9.254;2022-08-19T00:44:31;19.90;99.90
10905;DHT22;5505;51.450;9.254;2022-08-19T00:47:18;19.80;99.90
10905;DHT22;5505;51.450;9.254;2022-08-19T00:50:09;19.90;99.90
10905;DHT22;5505;51.450;9.254;2022-08-19T00:52:56;19.90;99.90
10905;DHT22;5505;51.450;9.254;2022-08-19T00:55:45;19.80;99.90
10905;DHT22;5505;51.450;9.254;2022-08-19T00:58:33;19.80;99.90
10905;DHT22;5505;51.450;9.254;2022-08-19T01:01:20;19.70;99.90
10905;DHT22;5505;51.450;9.254;2022-08-19T01:04:07;19.80;99.90
10905;DHT22;5505;51.450;9.254;2022-08-19T01:06:56;19.80;99.90
10905;DHT22;5505;51.450;9.254;2022-08-19T01:09:43;18.80;99.90
10905;DHT22;5505;51.450;9.254;2022-08-19T01:12:30;19.70;99.90
10905;DHT22;5505;51.450;9.254;2022-08-19T01:15:21;19.70;99.90
10905;DHT22;5505;51.450;9.254;2022-08-19T01:18:11;19.80;99.90
10905;DHT22;5505;51.450;9.254;2022-08-19T01:21:03;19.80;99.90
10905;DHT22;5505;51.450;9.254;2022-08-19T01:23:53;19.70;99.90
10905;DHT22;5505;51.450;9.254;2022-08-19T01:26:42;19.80;99.90
10905;DHT22;5505;51.450;9.254;2022-08-19T01:29:29;20.10;99.90
10905;DHT22;5505;51.450;9.254;2022-08-19T01:32:17;19.70;99.90
10905;DHT22;5505;51.450;9.254;2022-08-19T01:35:06;19.70;99.90
10905;DHT22;5505;51.450;9.254;2022-08-19T01:37:55;19.70;99.90
10905;DHT22;5505;51.450;9.254;2022-08-19T01:40:43;19.70;99.90
10905;DHT22;5505;51.450;9.254;2022-08-19T01:43:30;19.70;99.90
10905;DHT22;5505;51.450;9.254;2022-08-19T01:46:18;19.60;99.90
10905;DHT22;5505;51.450;9.254;2022-08-19T01:49:06;19.60;99.90
10905;DHT22;5505;51.450;9.254;2022-08-19T01:51:54;19.50;99.90
10905;DHT22;5505;51.450;9.254;2022-08-19T01:54:40;19.60;99.90
10905;DHT22;5505;51.450;9.254;2022-08-19T01:57:29;19.60;99.90
10905;DHT22;5505;51.450;9.254;2022-08-19T02:00:18;19.60;99.90
10905;DHT22;5505;51.450;9.254;2022-08-19T02:03:06;19.60;99.90
10905;DHT22;5505;51.450;9.254;2022-08-19T02:05:56;19.50;99.90
10905;DHT22;5505;51.450;9.254;2022-08-19T02:08:45;19.50;99.90
10905;DHT22;5505;51.450;9.254;2022-08-19T02:11:35;19.40;99.90
10905;DHT22;5505;51.450;9.254;2022-08-19T02:14:24;19.40;99.90
10905;DHT22;5505;51.450;9.254;2022-08-19T02:17:11;19.50;99.90
10905;DHT22;5505;51.450;9.254;2022-08-19T02:19:58;19.50;99.90
10905;DHT22;5505;51.450;9.254;2022-08-19T02:22:45;19.50;99.90
10905;DHT22;5505;51.450;9.254;2022-08-19T02:25:32;19.50;99.90
10905;DHT22;5505;51.450;9.254;2022-08-19T02:28:19;19.50;99.90
10905;DHT22;5505;51.450;9.254;2022-08-19T02:31:10;19.50;99.90
10905;DHT22;5505;51.450;9.254;2022-08-19T02:33:57;19.40;99.90
10905;DHT22;5505;51.450;9.254;2022-08-19T02:36:44;19.40;99.90
10905;DHT22;5505;51.450;9.254;2022-08-19T02:39:31;19.40;99.90
10905;DHT22;5505;51.450;9.254;2022-08-19T02:42:17;19.30;99.90
10905;DHT22;5505;51.450;9.254;2022-08-19T02:45:04;19.30;99.90
10905;DHT22;5505;51.450;9.254;2022-08-19T02:47:53;19.30;99.90
10905;DHT22;5505;51.450;9.254;2022-08-19T02:50:40;19.30;99.90
10905;DHT22;5505;51.450;9.254;2022-08-19T02:53:27;19.30;99.90
10905;DHT22;5505;51.450;9.254;2022-08-19T02:56:14;19.30;99.90
10905;DHT22;5505;51.450;9.254;2022-08-19T02:59:02;19.30;99.90
10905;DHT22;5505;51.450;9.254;2022-08-19T03:01:53;19.30;99.90
10905;DHT22;5505;51.450;9.254;2022-08-19T03:04:41;19.30;99.90
10905;DHT22;5505;51.450;9.254;2022-08-19T03:07:28;20.10;99.90
10905;DHT22;5505;51.450;9.254;2022-08-19T03:10:16;19.30;99.90
10905;DHT22;5505;51.450;9.254;2022-08-19T03:13:03;19.30;99.90
10905;DHT22;5505;51.450;9.254;2022-08-19T03:15:49;19.20;99.90
10905;DHT22;5505;51.450;9.254;2022-08-19T03:18:36;19.20;99.90
10905;DHT22;5505;51.450;9.254;2022-08-19T03:21:26;19.10;99.90
10905;DHT22;5505;51.450;9.254;2022-08-19T03:24:14;19.10;99.90
10905;DHT22;5505;51.450;9.254;2022-08-19T03:27:01;19.10;99.90
10905;DHT22;5505;51.450;9.254;2022-08-19T03:29:50;19.10;99.90
10905;DHT22;5505;51.450;9.254;2022-08-19T03:32:37;19.10;99.90
10905;DHT22;5505;51.450;9.254;2022-08-19T03:35:24;19.10;99.90
10905;DHT22;5505;51.450;9.254;2022-08-19T03:38:12;19.10;99.90
10905;DHT22;5505;51.450;9.254;2022-08-19T03:41:06;19.10;99.90
10905;DHT22;5505;51.450;9.254;2022-08-19T03:43:54;19.10;99.90
10905;DHT22;5505;51.450;9.254;2022-08-19T03:46:41;19.10;99.90
10905;DHT22;5505;51.450;9.254;2022-08-19T03:49:30;19.00;99.90
10905;DHT22;5505;51.450;9.254;2022-08-19T03:52:18;19.00;99.90
10905;DHT22;5505;51.450;9.254;2022-08-19T03:55:07;19.00;99.90
10905;DHT22;5505;51.450;9.254;2022-08-19T03:57:53;19.10;99.90
10905;DHT22;5505;51.450;9.254;2022-08-19T04:00:42;19.00;99.90
10905;DHT22;5505;51.450;9.254;2022-08-19T04:03:28;19.00;99.90
10905;DHT22;5505;51.450;9.254;2022-08-19T04:06:18;19.00;99.90
10905;DHT22;5505;51.450;9.254;2022-08-19T04:09:08;18.90;99.90
10905;DHT22;5505;51.450;9.254;2022-08-19T04:11:57;18.90;99.90
10905;DHT22;5505;51.450;9.254;2022-08-19T04:14:44;18.90;99.90
10905;DHT22;5505;51.450;9.254;2022-08-19T04:17:31;18.90;99.90
10905;DHT22;5505;51.450;9.254;2022-08-19T04:20:18;18.90;99.90
10905;DHT22;5505;51.450;9.254;2022-08-19T04:23:05;18.90;99.90
10905;DHT22;5505;51.450;9.254;2022-08-19T04:25:52;18.80;99.90
10905;DHT22;5505;51.450;9.254;2022-08-19T04:28:40;18.80;99.90
10905;DHT22;5505;51.450;9.254;2022-08-19T04:31:29;18.80;99.90
10905;DHT22;5505;51.450;9.254;2022-08-19T04:34:19;18.70;99.90
10905;DHT22;5505;51.450;9.254;2022-08-19T04:37:08;18.60;99.90
10905;DHT22;5505;51.450;9.254;2022-08-19T04:39:59;18.60;99.90
10905;DHT22;5505;51.450;9.254;2022-08-19T04:43:03;18.60;99.90
10905;DHT22;5505;51.450;9.254;2022-08-19T04:45:51;18.50;99.90
10905;DHT22;5505;51.450;9.254;2022-08-19T04:48:39;18.50;99.90
10905;DHT22;5505;51.450;9.254;2022-08-19T04:51:26;18.50;99.90
10905;DHT22;5505;51.450;9.254;2022-08-19T04:54:13;18.40;99.90
10905;DHT22;5505;51.450;9.254;2022-08-19T04:57:00;18.40;99.90
10905;DHT22;5505;51.450;9.254;2022-08-19T04:59:46;18.30;99.90
10905;DHT22;5505;51.450;9.254;2022-08-19T05:02:35;18.30;99.90
10905;DHT22;5505;51.450;9.254;2022-08-19T05:05:21;18.30;99.90
10905;DHT22;5505;51.450;9.254;2022-08-19T05:08:08;18.30;99.90
10905;DHT22;5505;51.450;9.254;2022-08-19T05:10:55;18.20;99.90
10905;DHT22;5505;51.450;9.254;2022-08-19T05:13:43;18.30;99.90
10905;DHT22;5505;51.450;9.254;2022-08-19T05:16:31;18.20;99.90
10905;DHT22;5505;51.450;9.254;2022-08-19T05:19:19;18.20;99.90
10905;DHT22;5505;51.450;9.254;2022-08-19T05:22:23;18.20;99.90
10905;DHT22;5505;51.450;9.254;2022-08-19T05:25:22;18.10;99.90
10905;DHT22;5505;51.450;9.254;2022-08-19T05:28:10;18.20;99.90
10905;DHT22;5505;51.450;9.254;2022-08-19T05:30:56;18.10;99.90
10905;DHT22;5505;51.450;9.254;2022-08-19T05:33:43;18.10;99.90
10905;DHT22;5505;51.450;9.254;2022-08-19T05:36:36;18.10;99.90
10905;DHT22;5505;51.450;9.254;2022-08-19T05:39:27;18.20;99.90
10905;DHT22;5505;51.450;9.254;2022-08-19T05:42:15;18.00;99.90
10905;DHT22;5505;51.450;9.254;2022-08-19T05:45:03;18.20;99.90
10905;DHT22;5505;51.450;9.254;2022-08-19T05:47:50;18.20;99.90
10905;DHT22;5505;51.450;9.254;2022-08-19T05:50:37;18.30;99.90
10905;DHT22;5505;51.450;9.254;2022-08-19T05:53:26;18.40;99.90
10905;DHT22;5505;51.450;9.254;2022-08-19T05:56:15;18.50;99.90
10905;DHT22;5505;51.450;9.254;2022-08-19T05:59:03;18.50;99.90
10905;DHT22;5505;51.450;9.254;2022-08-19T06:01:55;18.50;99.90
10905;DHT22;5505;51.450;9.254;2022-08-19T06:04:42;18.50;99.90
10905;DHT22;5505;51.450;9.254;2022-08-19T06:07:29;18.60;99.90
10905;DHT22;5505;51.450;9.254;2022-08-19T06:10:18;18.70;99.90
10905;DHT22;5505;51.450;9.254;2022-08-19T06:13:06;18.70;99.90
10905;DHT22;5505;51.450;9.254;2022-08-19T06:15:52;18.80;99.90
10905;DHT22;5505;51.450;9.254;2022-08-19T06:18:39;18.70;99.90
10905;DHT22;5505;51.450;9.254;2022-08-19T06:21:28;18.80;99.90
10905;DHT22;5505;51.450;9.254;2022-08-19T06:24:17;18.70;99.90
10905;DHT22;5505;51.450;9.254;2022-08-19T06:27:06;18.70;99.90
10905;DHT22;5505;51.450;9.254;2022-08-19T06:29:53;18.70;99.90
10905;DHT22;5505;51.450;9.254;2022-08-19T06:32:39;18.80;99.90
10905;DHT22;5505;51.450;9.254;2022-08-19T06:35:26;18.80;99.90
10905;DHT22;5505;51.450;9.254;2022-08-19T06:38:15;18.90;99.90
10905;DHT22;5505;51.450;9.254;2022-08-19T06:41:02;19.00;99.90
10905;DHT22;5505;51.450;9.254;2022-08-19T06:43:50;19.10;99.90
10905;DHT22;5505;51.450;9.254;2022-08-19T06:46:38;19.10;99.90
10905;DHT22;5505;51.450;9.254;2022-08-19T06:49:25;19.10;99.90
10905;DHT22;5505;51.450;9.254;2022-08-19T06:52:17;19.20;99.90
10905;DHT22;5505;51.450;9.254;2022-08-19T06:55:06;19.20;99.90
10905;DHT22;5505;51.450;9.254;2022-08-19T06:57:52;19.20;99.90
10905;DHT22;5505;51.450;9.254;2022-08-19T07:00:41;19.30;99.90
10905;DHT22;5505;51.450;9.254;2022-08-19T07:03:29;19.40;99.90
10905;DHT22;5505;51.450;9.254;2022-08-19T07:06:18;19.50;99.90
10905;DHT22;5505;51.450;9.254;2022-08-19T07:09:08;19.60;99.90
10905;DHT22;5505;51.450;9.254;2022-08-19T07:11:55;19.60;99.90
10905;DHT22;5505;51.450;9.254;2022-08-19T07:14:42;19.60;99.90
10905;DHT22;5505;51.450;9.254;2022-08-19T07:17:32;19.70;99.90
10905;DHT22;5505;51.450;9.254;2022-08-19T07:20:20;19.90;99.90
10905;DHT22;5505;51.450;9.254;2022-08-19T07:23:07;19.90;99.90
10905;DHT22;5505;51.450;9.254;2022-08-19T07:25:55;19.90;99.90
10905;DHT22;5505;51.450;9.254;2022-08-19T07:28:43;20.00;99.90
10905;DHT22;5505;51.450;9.254;2022-08-19T07:31:30;20.10;99.90
10905;DHT22;5505;51.450;9.254;2022-08-19T07:34:18;20.20;99.90
10905;DHT22;5505;51.450;9.254;2022-08-19T07:37:06;20.30;99.90
10905;DHT22;5505;51.450;9.254;2022-08-19T07:39:53;20.40;99.90
10905;DHT22;5505;51.450;9.254;2022-08-19T07:42:40;20.40;99.90
10905;DHT22;5505;51.450;9.254;2022-08-19T07:45:28;20.40;99.90
10905;DHT22;5505;51.450;9.254;2022-08-19T07:48:15;20.60;99.90
10905;DHT22;5505;51.450;9.254;2022-08-19T07:51:05;20.60;99.90
10905;DHT22;5505;51.450;9.254;2022-08-19T07:53:54;20.70;99.90
10905;DHT22;5505;51.450;9.254;2022-08-19T07:56:41;20.70;99.90
10905;DHT22;5505;51.450;9.254;2022-08-19T07:59:28;20.70;99.90
10905;DHT22;5505;51.450;9.254;2022-08-19T08:02:14;20.70;99.90
10905;DHT22;5505;51.450;9.254;2022-08-19T08:05:02;20.70;99.90
10905;DHT22;5505;51.450;9.254;2022-08-19T08:08:08;20.70;99.90
10905;DHT22;5505;51.450;9.254;2022-08-19T08:11:13;20.80;99.90
10905;DHT22;5505;51.450;9.254;2022-08-19T08:14:01;20.90;99.90
10905;DHT22;5505;51.450;9.254;2022-08-19T08:16:49;21.10;99.90
10905;DHT22;5505;51.450;9.254;2022-08-19T08:19:37;21.30;99.90
10905;DHT22;5505;51.450;9.254;2022-08-19T08:22:26;21.50;99.90
10905;DHT22;5505;51.450;9.254;2022-08-19T08:25:32;21.70;99.90
10905;DHT22;5505;51.450;9.254;2022-08-19T08:28:21;21.80;99.90
10905;DHT22;5505;51.450;9.254;2022-08-19T08:31:08;22.00;99.90
10905;DHT22;5505;51.450;9.254;2022-08-19T08:33:56;22.00;99.90
10905;DHT22;5505;51.450;9.254;2022-08-19T08:36:44;22.10;99.90
10905;DHT22;5505;51.450;9.254;2022-08-19T08:39:31;22.00;99.90
10905;DHT22;5505;51.450;9.254;2022-08-19T08:42:24;21.90;99.90
10905;DHT22;5505;51.450;9.254;2022-08-19T08:45:15;21.70;99.90
10905;DHT22;5505;51.450;9.254;2022-08-19T08:48:10;21.90;99.90
10905;DHT22;5505;51.450;9.254;2022-08-19T08:51:02;21.60;99.90
10905;DHT22;5505;51.450;9.254;2022-08-19T08:53:51;21.80;99.90
10905;DHT22;5505;51.450;9.254;2022-08-19T08:56:39;21.90;99.90
10905;DHT22;5505;51.450;9.254;2022-08-19T08:59:31;22.00;99.90
10905;DHT22;5505;51.450;9.254;2022-08-19T09:02:19;22.00;99.90
10905;DHT22;5505;51.450;9.254;2022-08-19T09:05:07;22.10;99.90
10905;DHT22;5505;51.450;9.254;2022-08-19T09:08:00;22.10;99.90
10905;DHT22;5505;51.450;9.254;2022-08-19T09:10:51;22.10;99.90
10905;DHT22;5505;51.450;9.254;2022-08-19T09:13:44;22.10;99.90
10905;DHT22;5505;51.450;9.254;2022-08-19T09:16:38;22.10;99.90
10905;DHT22;5505;51.450;9.254;2022-08-19T09:19:26;22.10;99.90
10905;DHT22;5505;51.450;9.254;2022-08-19T09:22:13;22.10;99.90
10905;DHT22;5505;51.450;9.254;2022-08-19T09:25:01;22.10;99.90
10905;DHT22;5505;51.450;9.254;2022-08-19T09:27:51;22.10;99.90
10905;DHT22;5505;51.450;9.254;2022-08-19T09:30:41;22.00;99.90
10905;DHT22;5505;51.450;9.254;2022-08-19T09:33:30;22.00;99.90
10905;DHT22;5505;51.450;9.254;2022-08-19T09:36:20;21.90;99.90
10905;DHT22;5505;51.450;9.254;2022-08-19T09:39:07;21.90;99.90
10905;DHT22;5505;51.450;9.254;2022-08-19T09:41:54;21.90;99.90
10905;DHT22;5505;51.450;9.254;2022-08-19T09:44:42;22.10;99.90
10905;DHT22;5505;51.450;9.254;2022-08-19T09:47:29;22.20;99.90
10905;DHT22;5505;51.450;9.254;2022-08-19T09:50:17;22.20;99.90
10905;DHT22;5505;51.450;9.254;2022-08-19T09:53:04;22.20;99.90
10905;DHT22;5505;51.450;9.254;2022-08-19T09:55:51;22.20;99.90
10905;DHT22;5505;51.450;9.254;2022-08-19T09:58:39;22.20;99.90
10905;DHT22;5505;51.450;9.254;2022-08-19T10:01:27;22.20;99.90
10905;DHT22;5505;51.450;9.254;2022-08-19T10:04:15;22.30;99.90
10905;DHT22;5505;51.450;9.254;2022-08-19T10:07:03;22.40;99.90
10905;DHT22;5505;51.450;9.254;2022-08-19T10:09:50;22.40;99.90
10905;DHT22;5505;51.450;9.254;2022-08-19T10:12:37;22.40;99.90
10905;DHT22;5505;51.450;9.254;2022-08-19T10:15:24;22.30;99.90
10905;DHT22;5505;51.450;9.254;2022-08-19T10:18:11;22.20;99.90
10905;DHT22;5505;51.450;9.254;2022-08-19T10:21:04;22.10;99.90
10905;DHT22;5505;51.450;9.254;2022-08-19T10:23:57;22.20;99.90
10905;DHT22;5505;51.450;9.254;2022-08-19T10:26:44;22.20;99.90
10905;DHT22;5505;51.450;9.254;2022-08-19T10:29:33;22.30;99.90
10905;DHT22;5505;51.450;9.254;2022-08-19T10:32:20;22.30;99.90
10905;DHT22;5505;51.450;9.254;2022-08-19T10:35:08;22.30;99.90
10905;DHT22;5505;51.450;9.254;2022-08-19T10:37:55;22.30;99.90
10905;DHT22;5505;51.450;9.254;2022-08-19T10:40:45;22.40;99.90
10905;DHT22;5505;51.450;9.254;2022-08-19T10:43:32;22.60;99.90
10905;DHT22;5505;51.450;9.254;2022-08-19T10:46:24;22.70;99.90
10905;DHT22;5505;51.450;9.254;2022-08-19T10:49:11;23.00;99.90
10905;DHT22;5505;51.450;9.254;2022-08-19T10:51:58;23.10;99.90
10905;DHT22;5505;51.450;9.254;2022-08-19T10:55:04;23.20;99.90
10905;DHT22;5505;51.450;9.254;2022-08-19T10:58:16;23.30;99.90
10905;DHT22;5505;51.450;9.254;2022-08-19T11:01:03;23.50;99.90
10905;DHT22;5505;51.450;9.254;2022-08-19T11:03:50;23.60;99.90
10905;DHT22;5505;51.450;9.254;2022-08-19T11:06:37;23.80;99.90
10905;DHT22;5505;51.450;9.254;2022-08-19T11:09:25;23.70;99.90
10905;DHT22;5505;51.450;9.254;2022-08-19T11:12:12;23.80;99.90
10905;DHT22;5505;51.450;9.254;2022-08-19T11:15:02;23.80;99.90
10905;DHT22;5505;51.450;9.254;2022-08-19T11:17:51;23.90;99.90
10905;DHT22;5505;51.450;9.254;2022-08-19T11:20:39;24.10;99.90
10905;DHT22;5505;51.450;9.254;2022-08-19T11:23:27;24.10;99.90
10905;DHT22;5505;51.450;9.254;2022-08-19T11:26:15;24.30;99.90
10905;DHT22;5505;51.450;9.254;2022-08-19T11:29:03;24.50;99.90
10905;DHT22;5505;51.450;9.254;2022-08-19T11:31:53;24.70;99.90
10905;DHT22;5505;51.450;9.254;2022-08-19T11:34:40;24.90;99.90
10905;DHT22;5505;51.450;9.254;2022-08-19T11:37:27;24.80;99.90
10905;DHT22;5505;51.450;9.254;2022-08-19T11:40:14;24.70;99.90
10905;DHT22;5505;51.450;9.254;2022-08-19T11:43:01;24.70;99.90
10905;DHT22;5505;51.450;9.254;2022-08-19T11:45:47;24.60;99.90
10905;DHT22;5505;51.450;9.254;2022-08-19T11:48:37;24.50;99.90
10905;DHT22;5505;51.450;9.254;2022-08-19T11:51:25;24.50;99.90
10905;DHT22;5505;51.450;9.254;2022-08-19T11:54:14;24.60;99.90
10905;DHT22;5505;51.450;9.254;2022-08-19T11:57:02;24.50;99.90
10905;DHT22;5505;51.450;9.254;2022-08-19T11:59:50;24.70;99.90
10905;DHT22;5505;51.450;9.254;2022-08-19T12:02:40;24.90;99.90
10905;DHT22;5505;51.450;9.254;2022-08-19T12:05:29;24.90;99.90
10905;DHT22;5505;51.450;9.254;2022-08-19T12:08:16;24.70;99.90
10905;DHT22;5505;51.450;9.254;2022-08-19T12:11:03;24.60;99.90
10905;DHT22;5505;51.450;9.254;2022-08-19T12:13:53;24.50;99.90
10905;DHT22;5505;51.450;9.254;2022-08-19T12:16:40;24.50;99.90
10905;DHT22;5505;51.450;9.254;2022-08-19T12:19:28;24.60;99.90
10905;DHT22;5505;51.450;9.254;2022-08-19T12:22:16;24.70;99.90
10905;DHT22;5505;51.450;9.254;2022-08-19T12:25:05;24.80;99.90
10905;DHT22;5505;51.450;9.254;2022-08-19T12:27:51;24.80;99.90
10905;DHT22;5505;51.450;9.254;2022-08-19T12:30:39;25.00;99.90
10905;DHT22;5505;51.450;9.254;2022-08-19T12:33:26;25.10;99.90
10905;DHT22;5505;51.450;9.254;2022-08-19T12:36:15;25.20;99.90
10905;DHT22;5505;51.450;9.254;2022-08-19T12:39:04;25.40;99.90
10905;DHT22;5505;51.450;9.254;2022-08-19T12:41:52;25.50;99.90
10905;DHT22;5505;51.450;9.254;2022-08-19T12:44:40;25.60;99.90
10905;DHT22;5505;51.450;9.254;2022-08-19T12:47:27;25.60;99.90
10905;DHT22;5505;51.450;9.254;2022-08-19T12:50:14;25.70;99.90
10905;DHT22;5505;51.450;9.254;2022-08-19T12:53:01;25.80;99.90
10905;DHT22;5505;51.450;9.254;2022-08-19T12:55:55;25.90;99.90
10905;DHT22;5505;51.450;9.254;2022-08-19T12:58:42;25.80;99.90
10905;DHT22;5505;51.450;9.254;2022-08-19T13:01:29;25.80;99.90
10905;DHT22;5505;51.450;9.254;2022-08-19T13:04:18;25.90;99.90
10905;DHT22;5505;51.450;9.254;2022-08-19T13:07:05;25.80;99.90
10905;DHT22;5505;51.450;9.254;2022-08-19T13:09:52;25.80;99.90
10905;DHT22;5505;51.450;9.254;2022-08-19T13:12:41;25.70;99.90
10905;DHT22;5505;51.450;9.254;2022-08-19T13:15:28;25.60;99.90
10905;DHT22;5505;51.450;9.254;2022-08-19T13:18:16;25.70;99.90
10905;DHT22;5505;51.450;9.254;2022-08-19T13:21:03;25.70;99.90
10905;DHT22;5505;51.450;9.254;2022-08-19T13:23:50;25.80;99.90
10905;DHT22;5505;51.450;9.254;2022-08-19T13:26:37;26.00;99.90
10905;DHT22;5505;51.450;9.254;2022-08-19T13:29:26;26.10;99.90
10905;DHT22;5505;51.450;9.254;2022-08-19T13:32:30;26.20;99.90
10905;DHT22;5505;51.450;9.254;2022-08-19T13:35:34;26.10;99.90
10905;DHT22;5505;51.450;9.254;2022-08-19T13:38:22;26.00;99.90
10905;DHT22;5505;51.450;9.254;2022-08-19T13:41:09;25.90;99.90
10905;DHT22;5505;51.450;9.254;2022-08-19T13:43:56;26.00;99.90
10905;DHT22;5505;51.450;9.254;2022-08-19T13:46:45;26.10;99.90
10905;DHT22;5505;51.450;9.254;2022-08-19T13:49:33;26.20;99.90
10905;DHT22;5505;51.450;9.254;2022-08-19T13:52:21;26.20;99.90
10905;DHT22;5505;51.450;9.254;2022-08-19T13:55:09;26.10;99.90
10905;DHT22;5505;51.450;9.254;2022-08-19T13:57:59;26.10;99.90
10905;DHT22;5505;51.450;9.254;2022-08-19T14:00:47;26.00;99.90
10905;DHT22;5505;51.450;9.254;2022-08-19T14:03:37;26.00;99.90
10905;DHT22;5505;51.450;9.254;2022-08-19T14:06:24;26.10;99.50
10905;DHT22;5505;51.450;9.254;2022-08-19T14:09:11;26.10;99.40
10905;DHT22;5505;51.450;9.254;2022-08-19T14:11:57;26.00;99.80
10905;DHT22;5505;51.450;9.254;2022-08-19T14:14:44;26.00;99.90
10905;DHT22;5505;51.450;9.254;2022-08-19T14:17:31;26.00;99.70
10905;DHT22;5505;51.450;9.254;2022-08-19T14:20:21;26.00;99.90
10905;DHT22;5505;51.450;9.254;2022-08-19T14:23:09;26.00;99.90
10905;DHT22;5505;51.450;9.254;2022-08-19T14:26:04;25.90;99.90
10905;DHT22;5505;51.450;9.254;2022-08-19T14:28:51;26.40;99.60
10905;DHT22;5505;51.450;9.254;2022-08-19T14:31:38;26.50;99.90
10905;DHT22;5505;51.450;9.254;2022-08-19T14:34:27;26.50;99.30
10905;DHT22;5505;51.450;9.254;2022-08-19T14:37:18;26.50;99.60
10905;DHT22;5505;51.450;9.254;2022-08-19T14:40:06;26.30;99.90
10905;DHT22;5505;51.450;9.254;2022-08-19T14:42:53;26.30;99.90
10905;DHT22;5505;51.450;9.254;2022-08-19T14:45:44;26.30;99.80
10905;DHT22;5505;51.450;9.254;2022-08-19T14:48:31;26.20;99.90
10905;DHT22;5505;51.450;9.254;2022-08-19T14:51:19;26.20;99.90
10905;DHT22;5505;51.450;9.254;2022-08-19T14:54:08;26.30;99.90
10905;DHT22;5505;51.450;9.254;2022-08-19T14:56:55;26.50;99.90
10905;DHT22;5505;51.450;9.254;2022-08-19T14:59:42;26.60;99.90
10905;DHT22;5505;51.450;9.254;2022-08-19T15:02:28;26.60;99.90
10905;DHT22;5505;51.450;9.254;2022-08-19T15:05:16;26.50;99.90
10905;DHT22;5505;51.450;9.254;2022-08-19T15:08:03;26.30;99.90
10905;DHT22;5505;51.450;9.254;2022-08-19T15:10:52;26.00;99.90
10905;DHT22;5505;51.450;9.254;2022-08-19T15:13:39;25.90;99.90
10905;DHT22;5505;51.450;9.254;2022-08-19T15:16:27;26.00;99.90
10905;DHT22;5505;51.450;9.254;2022-08-19T15:19:14;25.90;99.90
10905;DHT22;5505;51.450;9.254;2022-08-19T15:22:01;25.80;99.90
10905;DHT22;5505;51.450;9.254;2022-08-19T15:24:48;26.00;99.90
10905;DHT22;5505;51.450;9.254;2022-08-19T15:27:36;26.00;99.90
10905;DHT22;5505;51.450;9.254;2022-08-19T15:30:30;26.20;99.90
10905;DHT22;5505;51.450;9.254;2022-08-19T15:33:19;26.40;99.90
10905;DHT22;5505;51.450;9.254;2022-08-19T15:36:07;26.40;99.40
10905;DHT22;5505;51.450;9.254;2022-08-19T15:38:54;26.30;99.70
10905;DHT22;5505;51.450;9.254;2022-08-19T15:41:41;26.30;99.70
10905;DHT22;5505;51.450;9.254;2022-08-19T15:44:30;26.40;98.90
10905;DHT22;5505;51.450;9.254;2022-08-19T15:47:16;26.30;98.90
10905;DHT22;5505;51.450;9.254;2022-08-19T15:50:06;26.10;98.90
10905;DHT22;5505;51.450;9.254;2022-08-19T15:52:55;26.00;99.30
10905;DHT22;5505;51.450;9.254;2022-08-19T15:55:44;25.90;99.40
10905;DHT22;5505;51.450;9.254;2022-08-19T15:58:32;25.90;99.40
10905;DHT22;5505;51.450;9.254;2022-08-19T16:01:38;25.90;99.20
10905;DHT22;5505;51.450;9.254;2022-08-19T16:04:42;25.90;99.80
10905;DHT22;5505;51.450;9.254;2022-08-19T16:07:46;25.90;99.60
10905;DHT22;5505;51.450;9.254;2022-08-19T16:10:33;26.00;99.50
10905;DHT22;5505;51.450;9.254;2022-08-19T16:13:20;25.80;99.60
10905;DHT22;5505;51.450;9.254;2022-08-19T16:16:07;25.80;99.40
10905;DHT22;5505;51.450;9.254;2022-08-19T16:18:56;25.70;99.90
10905;DHT22;5505;51.450;9.254;2022-08-19T16:21:47;25.70;99.50
10905;DHT22;5505;51.450;9.254;2022-08-19T16:24:34;25.70;99.60
10905;DHT22;5505;51.450;9.254;2022-08-19T16:27:20;25.80;99.40
10905;DHT22;5505;51.450;9.254;2022-08-19T16:30:08;25.70;99.70
10905;DHT22;5505;51.450;9.254;2022-08-19T16:32:55;25.70;99.50
10905;DHT22;5505;51.450;9.254;2022-08-19T16:35:43;25.70;99.40
10905;DHT22;5505;51.450;9.254;2022-08-19T16:38:31;25.70;99.60
10905;DHT22;5505;51.450;9.254;2022-08-19T16:41:18;25.60;99.50
10905;DHT22;5505;51.450;9.254;2022-08-19T16:44:06;25.60;99.40
10905;DHT22;5505;51.450;9.254;2022-08-19T16:46:54;25.50;99.70
10905;DHT22;5505;51.450;9.254;2022-08-19T16:49:41;25.40;99.50
10905;DHT22;5505;51.450;9.254;2022-08-19T16:52:29;25.40;99.90
10905;DHT22;5505;51.450;9.254;2022-08-19T16:55:16;25.40;99.70
10905;DHT22;5505;51.450;9.254;2022-08-19T16:58:03;25.40;99.70
10905;DHT22;5505;51.450;9.254;2022-08-19T17:00:50;25.20;99.90
10905;DHT22;5505;51.450;9.254;2022-08-19T17:03:38;25.20;99.90
10905;DHT22;5505;51.450;9.254;2022-08-19T17:06:27;25.20;99.90
10905;DHT22;5505;51.450;9.254;2022-08-19T17:09:16;25.10;99.90
10905;DHT22;5505;51.450;9.254;2022-08-19T17:12:03;25.10;99.90
10905;DHT22;5505;51.450;9.254;2022-08-19T17:14:50;25.10;99.90
10905;DHT22;5505;51.450;9.254;2022-08-19T17:17:37;25.00;99.90
10905;DHT22;5505;51.450;9.254;2022-08-19T17:20:24;25.00;99.90
10905;DHT22;5505;51.450;9.254;2022-08-19T17:23:11;24.90;99.90
10905;DHT22;5505;51.450;9.254;2022-08-19T17:25:59;24.80;99.90
10905;DHT22;5505;51.450;9.254;2022-08-19T17:28:47;24.80;99.90
10905;DHT22;5505;51.450;9.254;2022-08-19T17:31:35;24.70;99.90
10905;DHT22;5505;51.450;9.254;2022-08-19T17:34:22;24.60;99.90
10905;DHT22;5505;51.450;9.254;2022-08-19T17:37:09;24.60;99.90
10905;DHT22;5505;51.450;9.254;2022-08-19T17:39:56;24.50;99.90
10905;DHT22;5505;51.450;9.254;2022-08-19T17:42:44;24.50;99.90
10905;DHT22;5505;51.450;9.254;2022-08-19T17:45:31;24.40;99.90
10905;DHT22;5505;51.450;9.254;2022-08-19T17:48:18;24.50;99.90
10905;DHT22;5505;51.450;9.254;2022-08-19T17:51:13;24.50;99.90
10905;DHT22;5505;51.450;9.254;2022-08-19T17:54:01;24.30;99.90
10905;DHT22;5505;51.450;9.254;2022-08-19T17:56:48;24.10;99.90
10905;DHT22;5505;51.450;9.254;2022-08-19T17:59:37;24.00;99.90
10905;DHT22;5505;51.450;9.254;2022-08-19T18:02:24;24.00;99.90